CYZG

Details ICAO CYZG (YZG)
Name Salluit
Region Canada
Timezone America/Montreal (UTC-4.0)
Plans Departing 12
Arriving 20
Stats Elevation 705 ft / 215 m (AMSL)
Location 62.179178° -75.667313°
Runways 1
Magnetic Variation 22.820° W
Sunrise 2018-05-25 07:43:17 UTC / 2018-05-25 03:43:17 Local
Sunset 2018-05-26 02:18:50 UTC / 2018-05-25 22:18:50 Local
Advertisement - Login to hide

Runways

ID Width Length Bearing (true) Bearing (mag) Surface Threshold Offset Overrun Length
1 115 ft / 35 m 3,939 ft / 1,201 m 187.01° 209.83° Gravel 0 ft / 0 m 0 ft / 0 m
19 115 ft / 35 m 3,939 ft / 1,201 m 7.01° 29.83° Gravel 0 ft / 0 m 0 ft / 0 m

Map

Weather


0- 5 10 15 20 25 30 35+ Temperature / ° C

Clouds and Precipitation
Forecast for 2018-05-26 00:00 UTC. Updated 3 hours ago

Ground ~20,000 ft ~40,000 ft Winds

METAR

Not found

TAF

TAF AMD CYZG 251927Z 2519/2521 35012KT 5SM -SN BR BKN006 OVC015 TEMPO 2519/2521 P6SM NSW SCT006 OVC030 RMK NXT FCST WILL BE ISSUED AT 261345Z
Warning: Do not use this data for real-world aviation or navigation. No guarantee of current accuracy is given.